sensor_id;sensor_type;location;lat;lon;timestamp;pressure;altitude;pressure_sealevel;temperature;humidity
62978;BME280;49073;42.352;23.808;2023-02-13T00:00:22;96371.06;;;-1.79;84.11
62978;BME280;49073;42.352;23.808;2023-02-13T00:03:23;96366.75;;;-1.85;84.52
62978;BME280;49073;42.352;23.808;2023-02-13T00:06:24;96376.81;;;-1.65;84.49
62978;BME280;49073;42.352;23.808;2023-02-13T00:09:25;96374.31;;;-1.71;84.98
62978;BME280;49073;42.352;23.808;2023-02-13T00:12:25;96368.09;;;-1.82;85.05
62978;BME280;49073;42.352;23.808;2023-02-13T00:15:26;96366.34;;;-1.65;85.12
62978;BME280;49073;42.352;23.808;2023-02-13T00:18:27;96376.34;;;-1.62;85.08
62978;BME280;49073;42.352;23.808;2023-02-13T00:21:29;96369.63;;;-1.57;85.24
62978;BME280;49073;42.352;23.808;2023-02-13T00:24:29;96369.84;;;-1.59;85.47
62978;BME280;49073;42.352;23.808;2023-02-13T00:27:30;96377.69;;;-1.59;85.25
62978;BME280;49073;42.352;23.808;2023-02-13T00:30:30;96364.59;;;-1.47;85.00
62978;BME280;49073;42.352;23.808;2023-02-13T00:33:31;96374.09;;;-1.41;84.64
62978;BME280;49073;42.352;23.808;2023-02-13T00:36:32;96366.38;;;-1.48;84.81
62978;BME280;49073;42.352;23.808;2023-02-13T00:39:33;96369.38;;;-1.56;84.96
62978;BME280;49073;42.352;23.808;2023-02-13T00:42:33;96371.63;;;-1.48;85.41
62978;BME280;49073;42.352;23.808;2023-02-13T00:45:34;96372.13;;;-1.34;85.12
62978;BME280;49073;42.352;23.808;2023-02-13T00:48:35;96383.41;;;-1.33;85.62
62978;BME280;49073;42.352;23.808;2023-02-13T00:51:35;96377.78;;;-1.25;85.36
62978;BME280;49073;42.352;23.808;2023-02-13T00:54:36;96384.56;;;-1.41;85.26
62978;BME280;49073;42.352;23.808;2023-02-13T00:57:36;96385.59;;;-1.42;85.43
62978;BME280;49073;42.352;23.808;2023-02-13T01:00:38;96386.16;;;-1.40;85.53
62978;BME280;49073;42.352;23.808;2023-02-13T01:03:39;96385.28;;;-1.45;85.62
62978;BME280;49073;42.352;23.808;2023-02-13T01:06:40;96395.16;;;-1.48;85.08
62978;BME280;49073;42.352;23.808;2023-02-13T01:09:40;96393.91;;;-1.45;85.09
62978;BME280;49073;42.352;23.808;2023-02-13T01:12:41;96382.38;;;-1.32;84.86
62978;BME280;49073;42.352;23.808;2023-02-13T01:15:42;96394.19;;;-1.29;84.83
62978;BME280;49073;42.352;23.808;2023-02-13T01:18:42;96392.41;;;-1.41;85.12
62978;BME280;49073;42.352;23.808;2023-02-13T01:21:44;96387.22;;;-1.53;85.29
62978;BME280;49073;42.352;23.808;2023-02-13T01:24:44;96389.06;;;-1.65;86.00
62978;BME280;49073;42.352;23.808;2023-02-13T01:27:45;96394.09;;;-1.64;86.26
62978;BME280;49073;42.352;23.808;2023-02-13T01:30:51;96393.69;;;-1.43;85.92
62978;BME280;49073;42.352;23.808;2023-02-13T01:33:55;96392.88;;;-1.44;85.44
62978;BME280;49073;42.352;23.808;2023-02-13T01:36:57;96392.03;;;-1.33;84.74
62978;BME280;49073;42.352;23.808;2023-02-13T01:39:58;96396.00;;;-1.30;84.20
62978;BME280;49073;42.352;23.808;2023-02-13T01:42:59;96400.81;;;-1.39;84.31
62978;BME280;49073;42.352;23.808;2023-02-13T01:46:00;96399.50;;;-1.53;84.60
62978;BME280;49073;42.352;23.808;2023-02-13T01:49:17;96405.13;;;-1.85;86.40
62978;BME280;49073;42.352;23.808;2023-02-13T01:52:19;96401.41;;;-1.90;87.17
62978;BME280;49073;42.352;23.808;2023-02-13T01:55:20;96404.47;;;-1.81;87.69
62978;BME280;49073;42.352;23.808;2023-02-13T01:58:24;96407.47;;;-1.60;86.56
62978;BME280;49073;42.352;23.808;2023-02-13T02:01:27;96402.94;;;-1.65;86.20
62978;BME280;49073;42.352;23.808;2023-02-13T02:04:31;96411.66;;;-1.59;85.96
62978;BME280;49073;42.352;23.808;2023-02-13T02:07:33;96411.94;;;-1.72;86.23
62978;BME280;49073;42.352;23.808;2023-02-13T02:10:36;96410.41;;;-1.44;85.83
62978;BME280;49073;42.352;23.808;2023-02-13T02:13:37;96414.91;;;-1.40;84.88
62978;BME280;49073;42.352;23.808;2023-02-13T02:16:37;96421.66;;;-1.56;85.30
62978;BME280;49073;42.352;23.808;2023-02-13T02:24:08;96423.59;;;-1.51;85.54
62978;BME280;49073;42.352;23.808;2023-02-13T02:27:08;96431.41;;;-1.39;85.38
62978;BME280;49073;42.352;23.808;2023-02-13T02:33:58;96436.16;;;-1.36;84.35
62978;BME280;49073;42.352;23.808;2023-02-13T02:43:43;96429.84;;;-1.52;84.31
62978;BME280;49073;42.352;23.808;2023-02-13T02:53:41;96440.09;;;-1.63;85.10
62978;BME280;49073;42.352;23.808;2023-02-13T02:56:43;96440.88;;;-1.62;85.31
62978;BME280;49073;42.352;23.808;2023-02-13T02:59:45;96429.38;;;-1.49;85.04
62978;BME280;49073;42.352;23.808;2023-02-13T03:03:18;96432.13;;;-1.56;84.86
62978;BME280;49073;42.352;23.808;2023-02-13T03:06:49;96432.72;;;-1.66;84.97
62978;BME280;49073;42.352;23.808;2023-02-13T03:09:56;96448.25;;;-1.59;85.47
62978;BME280;49073;42.352;23.808;2023-02-13T03:13:33;96441.00;;;-1.57;83.98
62978;BME280;49073;42.352;23.808;2023-02-13T03:16:35;96430.31;;;-1.55;83.35
62978;BME280;49073;42.352;23.808;2023-02-13T03:20:12;96439.19;;;-1.68;82.91
62978;BME280;49073;42.352;23.808;2023-02-13T03:30:02;96436.84;;;-1.82;82.89
62978;BME280;49073;42.352;23.808;2023-02-13T03:36:50;96436.28;;;-2.08;84.50
62978;BME280;49073;42.352;23.808;2023-02-13T03:43:50;96442.19;;;-2.12;83.33
62978;BME280;49073;42.352;23.808;2023-02-13T03:46:57;96445.72;;;-2.30;83.85
62978;BME280;49073;42.352;23.808;2023-02-13T03:49:58;96452.53;;;-2.17;83.86
62978;BME280;49073;42.352;23.808;2023-02-13T03:53:10;96453.66;;;-2.13;83.51
62978;BME280;49073;42.352;23.808;2023-02-13T03:56:13;96456.84;;;-2.35;84.28
62978;BME280;49073;42.352;23.808;2023-02-13T03:59:35;96450.59;;;-2.34;84.41
62978;BME280;49073;42.352;23.808;2023-02-13T04:03:04;96450.59;;;-2.34;83.65
62978;BME280;49073;42.352;23.808;2023-02-13T04:06:04;96452.88;;;-2.38;82.79
62978;BME280;49073;42.352;23.808;2023-02-13T04:09:06;96447.38;;;-2.60;83.03
62978;BME280;49073;42.352;23.808;2023-02-13T04:12:09;96452.84;;;-2.61;82.84
62978;BME280;49073;42.352;23.808;2023-02-13T04:15:20;96455.63;;;-2.75;82.13
62978;BME280;49073;42.352;23.808;2023-02-13T04:18:26;96446.78;;;-2.86;82.04
62978;BME280;49073;42.352;23.808;2023-02-13T04:21:32;96455.78;;;-3.00;81.73
62978;BME280;49073;42.352;23.808;2023-02-13T04:24:33;96457.66;;;-3.19;81.65
62978;BME280;49073;42.352;23.808;2023-02-13T04:27:33;96452.34;;;-3.13;81.44
62978;BME280;49073;42.352;23.808;2023-02-13T04:30:34;96456.50;;;-3.24;80.51
62978;BME280;49073;42.352;23.808;2023-02-13T04:33:34;96445.72;;;-3.27;80.63
62978;BME280;49073;42.352;23.808;2023-02-13T04:36:35;96455.63;;;-3.36;80.60
62978;BME280;49073;42.352;23.808;2023-02-13T04:39:36;96452.75;;;-3.46;81.25
62978;BME280;49073;42.352;23.808;2023-02-13T04:42:36;96447.34;;;-3.63;81.41
62978;BME280;49073;42.352;23.808;2023-02-13T04:45:37;96455.25;;;-3.70;81.41
62978;BME280;49073;42.352;23.808;2023-02-13T04:48:37;96453.72;;;-3.78;82.17
62978;BME280;49073;42.352;23.808;2023-02-13T04:51:38;96452.19;;;-3.86;81.91
62978;BME280;49073;42.352;23.808;2023-02-13T04:54:38;96443.16;;;-3.83;81.78
62978;BME280;49073;42.352;23.808;2023-02-13T04:57:39;96440.97;;;-3.86;82.31
62978;BME280;49073;42.352;23.808;2023-02-13T05:00:39;96434.75;;;-3.85;82.55
62978;BME280;49073;42.352;23.808;2023-02-13T05:03:40;96442.63;;;-3.92;82.90
62978;BME280;49073;42.352;23.808;2023-02-13T05:06:41;96440.84;;;-3.91;83.63
62978;BME280;49073;42.352;23.808;2023-02-13T05:09:42;96434.31;;;-3.82;83.56
62978;BME280;49073;42.352;23.808;2023-02-13T05:12:42;96438.28;;;-3.98;83.42
62978;BME280;49073;42.352;23.808;2023-02-13T05:15:43;96436.84;;;-4.13;83.35
62978;BME280;49073;42.352;23.808;2023-02-13T05:18:43;96448.09;;;-4.19;82.86
62978;BME280;49073;42.352;23.808;2023-02-13T05:21:44;96440.34;;;-4.26;82.92
62978;BME280;49073;42.352;23.808;2023-02-13T05:25:03;96449.09;;;-4.39;82.91
62978;BME280;49073;42.352;23.808;2023-02-13T05:28:04;96441.63;;;-4.35;83.19
62978;BME280;49073;42.352;23.808;2023-02-13T05:31:25;96452.03;;;-4.35;83.72
62978;BME280;49073;42.352;23.808;2023-02-13T05:34:27;96456.66;;;-4.37;84.61
62978;BME280;49073;42.352;23.808;2023-02-13T05:37:28;96465.28;;;-4.36;83.67
62978;BME280;49073;42.352;23.808;2023-02-13T05:40:28;96458.94;;;-4.47;84.56
62978;BME280;49073;42.352;23.808;2023-02-13T05:43:29;96463.69;;;-4.38;84.40
62978;BME280;49073;42.352;23.808;2023-02-13T05:46:30;96465.78;;;-4.28;85.24
62978;BME280;49073;42.352;23.808;2023-02-13T05:49:30;96470.69;;;-4.38;85.06
62978;BME280;49073;42.352;23.808;2023-02-13T05:52:31;96476.63;;;-4.31;85.21
62978;BME280;49073;42.352;23.808;2023-02-13T05:55:31;96471.22;;;-4.29;85.88
62978;BME280;49073;42.352;23.808;2023-02-13T05:58:32;96472.69;;;-4.15;86.48
62978;BME280;49073;42.352;23.808;2023-02-13T06:01:33;96470.25;;;-4.10;87.16
62978;BME280;49073;42.352;23.808;2023-02-13T06:04:34;96479.47;;;-3.88;87.11
62978;BME280;49073;42.352;23.808;2023-02-13T06:07:34;96475.56;;;-3.79;87.25
62978;BME280;49073;42.352;23.808;2023-02-13T06:10:35;96476.56;;;-3.80;88.68
62978;BME280;49073;42.352;23.808;2023-02-13T06:13:35;96478.88;;;-3.72;89.08
62978;BME280;49073;42.352;23.808;2023-02-13T06:16:40;96488.91;;;-3.50;89.08
62978;BME280;49073;42.352;23.808;2023-02-13T06:19:40;96480.81;;;-3.30;90.17
62978;BME280;49073;42.352;23.808;2023-02-13T06:22:41;96490.94;;;-3.03;89.12
62978;BME280;49073;42.352;23.808;2023-02-13T06:25:41;96498.00;;;-2.92;88.76
62978;BME280;49073;42.352;23.808;2023-02-13T06:28:42;96495.25;;;-2.66;87.58
62978;BME280;49073;42.352;23.808;2023-02-13T06:31:42;96494.44;;;-2.67;87.52
62978;BME280;49073;42.352;23.808;2023-02-13T06:34:43;96493.69;;;-2.55;87.44
62978;BME280;49073;42.352;23.808;2023-02-13T06:37:43;96498.34;;;-2.45;87.51
62978;BME280;49073;42.352;23.808;2023-02-13T06:40:45;96491.78;;;-2.36;89.00
62978;BME280;49073;42.352;23.808;2023-02-13T06:43:46;96496.13;;;-2.18;88.98
62978;BME280;49073;42.352;23.808;2023-02-13T06:46:47;96498.97;;;-2.08;88.92
62978;BME280;49073;42.352;23.808;2023-02-13T06:49:47;96494.09;;;-1.80;88.40
62978;BME280;49073;42.352;23.808;2023-02-13T06:52:49;96491.25;;;-1.67;87.87
62978;BME280;49073;42.352;23.808;2023-02-13T06:55:54;96494.44;;;-1.65;88.04
62978;BME280;49073;42.352;23.808;2023-02-13T06:58:55;96492.03;;;-1.54;88.17
62978;BME280;49073;42.352;23.808;2023-02-13T07:01:56;96496.88;;;-1.34;88.18
62978;BME280;49073;42.352;23.808;2023-02-13T07:04:56;96487.66;;;-1.25;87.98
62978;BME280;49073;42.352;23.808;2023-02-13T07:07:57;96482.84;;;-1.16;87.11
62978;BME280;49073;42.352;23.808;2023-02-13T07:10:57;96487.56;;;-1.01;86.85
62978;BME280;49073;42.352;23.808;2023-02-13T07:13:58;96498.31;;;-0.85;86.98
62978;BME280;49073;42.352;23.808;2023-02-13T07:16:58;96492.06;;;-0.84;86.04
62978;BME280;49073;42.352;23.808;2023-02-13T07:19:59;96503.09;;;-0.82;85.53
62978;BME280;49073;42.352;23.808;2023-02-13T07:23:01;96495.41;;;-0.72;85.23
62978;BME280;49073;42.352;23.808;2023-02-13T07:26:02;96495.16;;;-0.70;84.34
62978;BME280;49073;42.352;23.808;2023-02-13T07:29:03;96496.47;;;-0.56;83.28
62978;BME280;49073;42.352;23.808;2023-02-13T07:32:05;96496.56;;;-0.51;82.87
62978;BME280;49073;42.352;23.808;2023-02-13T07:35:06;96495.03;;;-0.30;81.78
62978;BME280;49073;42.352;23.808;2023-02-13T07:38:07;96494.34;;;-0.25;80.68
62978;BME280;49073;42.352;23.808;2023-02-13T07:41:08;96499.34;;;-0.06;79.25
62978;BME280;49073;42.352;23.808;2023-02-13T07:44:09;96496.16;;;0.09;77.29
62978;BME280;49073;42.352;23.808;2023-02-13T07:47:09;96492.47;;;0.27;76.73
62978;BME280;49073;42.352;23.808;2023-02-13T07:50:10;96496.03;;;0.38;75.74
62978;BME280;49073;42.352;23.808;2023-02-13T07:53:12;96493.06;;;0.51;75.70
62978;BME280;49073;42.352;23.808;2023-02-13T07:56:13;96491.22;;;0.74;75.94
62978;BME280;49073;42.352;23.808;2023-02-13T07:59:14;96493.47;;;0.87;74.98
62978;BME280;49073;42.352;23.808;2023-02-13T08:02:15;96488.16;;;0.82;74.08
62978;BME280;49073;42.352;23.808;2023-02-13T08:05:16;96487.88;;;1.01;73.62
62978;BME280;49073;42.352;23.808;2023-02-13T08:08:16;96487.16;;;1.11;73.29
62978;BME280;49073;42.352;23.808;2023-02-13T08:11:23;96485.44;;;1.22;72.08
62978;BME280;49073;42.352;23.808;2023-02-13T08:15:06;96479.41;;;1.21;71.49
62978;BME280;49073;42.352;23.808;2023-02-13T08:18:06;96482.13;;;1.32;71.60
62978;BME280;49073;42.352;23.808;2023-02-13T08:21:07;96481.06;;;1.60;71.39
62978;BME280;49073;42.352;23.808;2023-02-13T08:24:08;96475.31;;;1.63;70.96
62978;BME280;49073;42.352;23.808;2023-02-13T08:27:12;96473.50;;;1.69;70.16
62978;BME280;49073;42.352;23.808;2023-02-13T08:30:13;96474.72;;;1.88;70.54
62978;BME280;49073;42.352;23.808;2023-02-13T08:33:14;96472.53;;;2.13;68.89
62978;BME280;49073;42.352;23.808;2023-02-13T08:36:15;96479.63;;;2.17;66.76
62978;BME280;49073;42.352;23.808;2023-02-13T08:39:15;96466.03;;;2.31;67.91
62978;BME280;49073;42.352;23.808;2023-02-13T08:42:16;96472.41;;;2.40;67.67
62978;BME280;49073;42.352;23.808;2023-02-13T08:45:17;96463.50;;;2.52;66.68
62978;BME280;49073;42.352;23.808;2023-02-13T08:48:17;96465.91;;;2.64;66.20
62978;BME280;49073;42.352;23.808;2023-02-13T08:51:18;96468.38;;;2.91;64.70
62978;BME280;49073;42.352;23.808;2023-02-13T08:54:18;96462.69;;;3.25;63.83
62978;BME280;49073;42.352;23.808;2023-02-13T08:57:19;96467.97;;;3.41;62.79
62978;BME280;49073;42.352;23.808;2023-02-13T09:00:20;96464.53;;;3.25;63.23
62978;BME280;49073;42.352;23.808;2023-02-13T09:03:21;96455.31;;;3.43;63.21
62978;BME280;49073;42.352;23.808;2023-02-13T09:06:21;96453.22;;;3.40;61.75
62978;BME280;49073;42.352;23.808;2023-02-13T09:09:22;96444.78;;;3.43;60.72
62978;BME280;49073;42.352;23.808;2023-02-13T09:12:23;96452.72;;;3.63;61.04
62978;BME280;49073;42.352;23.808;2023-02-13T09:15:23;96454.00;;;3.45;60.15
62978;BME280;49073;42.352;23.808;2023-02-13T09:18:24;96445.03;;;3.67;59.64
62978;BME280;49073;42.352;23.808;2023-02-13T09:21:25;96437.63;;;4.05;58.94
62978;BME280;49073;42.352;23.808;2023-02-13T09:24:25;96442.63;;;4.17;58.06
62978;BME280;49073;42.352;23.808;2023-02-13T09:27:26;96432.03;;;4.28;57.29
62978;BME280;49073;42.352;23.808;2023-02-13T09:30:27;96436.16;;;4.55;58.07
62978;BME280;49073;42.352;23.808;2023-02-13T09:33:27;96430.13;;;4.49;56.89
62978;BME280;49073;42.352;23.808;2023-02-13T09:36:28;96433.50;;;4.60;56.93
62978;BME280;49073;42.352;23.808;2023-02-13T09:39:28;96431.81;;;4.85;55.21
62978;BME280;49073;42.352;23.808;2023-02-13T09:42:30;96426.81;;;4.83;53.92
62978;BME280;49073;42.352;23.808;2023-02-13T09:45:33;96424.84;;;5.04;54.24
62978;BME280;49073;42.352;23.808;2023-02-13T09:48:36;96422.69;;;5.12;54.47
62978;BME280;49073;42.352;23.808;2023-02-13T09:51:40;96416.94;;;5.39;54.67
62978;BME280;49073;42.352;23.808;2023-02-13T09:54:42;96415.31;;;5.08;54.87
62978;BME280;49073;42.352;23.808;2023-02-13T10:01:28;96411.41;;;4.95;57.03
62978;BME280;49073;42.352;23.808;2023-02-13T10:04:47;96403.78;;;4.94;57.38
62978;BME280;49073;42.352;23.808;2023-02-13T10:14:34;96388.84;;;5.14;56.95
62978;BME280;49073;42.352;23.808;2023-02-13T10:17:41;96382.91;;;5.27;55.91
62978;BME280;49073;42.352;23.808;2023-02-13T10:20:47;96376.22;;;5.40;56.40
62978;BME280;49073;42.352;23.808;2023-02-13T10:24:05;96383.50;;;5.53;55.80
62978;BME280;49073;42.352;23.808;2023-02-13T10:27:22;96363.34;;;5.63;54.68
62978;BME280;49073;42.352;23.808;2023-02-13T10:30:32;96365.28;;;5.81;53.80
62978;BME280;49073;42.352;23.808;2023-02-13T10:33:50;96360.31;;;5.75;53.57
62978;BME280;49073;42.352;23.808;2023-02-13T10:36:51;96354.03;;;5.95;53.06
62978;BME280;49073;42.352;23.808;2023-02-13T10:39:52;96344.66;;;6.08;52.90
62978;BME280;49073;42.352;23.808;2023-02-13T10:43:02;96341.44;;;6.11;52.76
62978;BME280;49073;42.352;23.808;2023-02-13T10:59:33;96329.63;;;6.47;49.56
62978;BME280;49073;42.352;23.808;2023-02-13T11:02:36;96319.41;;;6.78;47.88
62978;BME280;49073;42.352;23.808;2023-02-13T11:05:38;96307.78;;;6.93;48.12
62978;BME280;49073;42.352;23.808;2023-02-13T11:08:42;96304.41;;;6.88;47.75
62978;BME280;49073;42.352;23.808;2023-02-13T11:11:42;96305.94;;;6.75;49.03
62978;BME280;49073;42.352;23.808;2023-02-13T11:14:56;96301.19;;;6.91;47.79
62978;BME280;49073;42.352;23.808;2023-02-13T11:18:24;96300.81;;;7.17;47.06
62978;BME280;49073;42.352;23.808;2023-02-13T11:21:31;96294.50;;;7.12;48.51
62978;BME280;49073;42.352;23.808;2023-02-13T11:24:34;96285.03;;;7.06;47.60
62978;BME280;49073;42.352;23.808;2023-02-13T11:27:37;96284.53;;;6.71;49.22
62978;BME280;49073;42.352;23.808;2023-02-13T11:30:39;96286.63;;;6.55;49.20
62978;BME280;49073;42.352;23.808;2023-02-13T11:33:40;96274.59;;;6.44;48.56
62978;BME280;49073;42.352;23.808;2023-02-13T11:36:41;96274.44;;;6.54;49.89
62978;BME280;49073;42.352;23.808;2023-02-13T11:39:43;96272.22;;;6.61;49.88
62978;BME280;49073;42.352;23.808;2023-02-13T11:42:46;96267.00;;;6.56;50.39
62978;BME280;49073;42.352;23.808;2023-02-13T11:46:23;96264.91;;;6.72;50.84
62978;BME280;49073;42.352;23.808;2023-02-13T11:49:29;96255.25;;;6.62;50.66
62978;BME280;49073;42.352;23.808;2023-02-13T11:52:34;96252.69;;;6.57;49.60
62978;BME280;49073;42.352;23.808;2023-02-13T11:55:38;96248.38;;;6.61;49.83
62978;BME280;49073;42.352;23.808;2023-02-13T11:58:40;96237.09;;;6.55;50.09
62978;BME280;49073;42.352;23.808;2023-02-13T12:01:41;96228.09;;;6.37;51.34
62978;BME280;49073;42.352;23.808;2023-02-13T12:04:42;96229.09;;;6.42;51.50
62978;BME280;49073;42.352;23.808;2023-02-13T12:07:45;96221.28;;;6.50;51.61
62978;BME280;49073;42.352;23.808;2023-02-13T12:10:46;96220.72;;;6.34;51.84
62978;BME280;49073;42.352;23.808;2023-02-13T12:13:46;96211.63;;;6.40;51.67
62978;BME280;49073;42.352;23.808;2023-02-13T12:17:12;96208.41;;;6.44;50.78
62978;BME280;49073;42.352;23.808;2023-02-13T12:20:16;96196.16;;;6.48;51.64
62978;BME280;49073;42.352;23.808;2023-02-13T12:26:45;96195.94;;;6.44;51.44
62978;BME280;49073;42.352;23.808;2023-02-13T12:30:08;96189.56;;;6.45;51.01
62978;BME280;49073;42.352;23.808;2023-02-13T12:33:31;96191.94;;;6.47;50.99
62978;BME280;49073;42.352;23.808;2023-02-13T12:40:19;96187.50;;;6.42;50.10
62978;BME280;49073;42.352;23.808;2023-02-13T12:46:43;96186.38;;;6.29;49.81
62978;BME280;49073;42.352;23.808;2023-02-13T12:59:54;96172.19;;;6.39;49.08
62978;BME280;49073;42.352;23.808;2023-02-13T13:12:45;96173.56;;;6.36;47.63
62978;BME280;49073;42.352;23.808;2023-02-13T13:16:18;96184.38;;;6.02;47.62
62978;BME280;49073;42.352;23.808;2023-02-13T13:28:57;96165.69;;;6.31;47.28
62978;BME280;49073;42.352;23.808;2023-02-13T13:32:02;96169.56;;;6.20;46.41
62978;BME280;49073;42.352;23.808;2023-02-13T13:35:12;96161.97;;;6.13;47.94
62978;BME280;49073;42.352;23.808;2023-02-13T13:38:17;96177.38;;;6.11;48.17
62978;BME280;49073;42.352;23.808;2023-02-13T13:41:46;96170.88;;;5.79;48.53
62978;BME280;49073;42.352;23.808;2023-02-13T13:48:49;96155.44;;;5.86;48.97
62978;BME280;49073;42.352;23.808;2023-02-13T13:51:43;96162.56;;;5.66;48.81
62978;BME280;49073;42.352;23.808;2023-02-13T13:54:43;96165.13;;;5.52;50.31
62978;BME280;49073;42.352;23.808;2023-02-13T13:57:58;96157.19;;;5.52;50.46
62978;BME280;49073;42.352;23.808;2023-02-13T14:11:42;96159.94;;;5.42;50.17
62978;BME280;49073;42.352;23.808;2023-02-13T14:14:44;96155.34;;;5.29;50.25
62978;BME280;49073;42.352;23.808;2023-02-13T14:23:49;96159.97;;;5.18;50.01
62978;BME280;49073;42.352;23.808;2023-02-13T14:26:54;96149.13;;;5.19;50.68
62978;BME280;49073;42.352;23.808;2023-02-13T14:29:56;96149.13;;;5.19;50.87
62978;BME280;49073;42.352;23.808;2023-02-13T14:33:06;96157.25;;;5.23;51.10
62978;BME280;49073;42.352;23.808;2023-02-13T14:36:19;96150.19;;;5.18;51.00
62978;BME280;49073;42.352;23.808;2023-02-13T14:39:30;96150.44;;;5.17;49.81
62978;BME280;49073;42.352;23.808;2023-02-13T14:42:31;96139.88;;;5.17;51.01
62978;BME280;49073;42.352;23.808;2023-02-13T14:45:45;96151.59;;;5.10;50.21
62978;BME280;49073;42.352;23.808;2023-02-13T14:49:04;96143.66;;;5.10;50.41
62978;BME280;49073;42.352;23.808;2023-02-13T14:52:15;96138.38;;;5.10;51.16
62978;BME280;49073;42.352;23.808;2023-02-13T14:55:40;96146.47;;;4.95;51.89
62978;BME280;49073;42.352;23.808;2023-02-13T14:58:52;96143.31;;;4.93;52.46
62978;BME280;49073;42.352;23.808;2023-02-13T15:01:59;96143.97;;;4.79;53.38
62978;BME280;49073;42.352;23.808;2023-02-13T15:05:04;96144.53;;;4.76;53.33
62978;BME280;49073;42.352;23.808;2023-02-13T15:08:16;96145.81;;;4.79;53.54
62978;BME280;49073;42.352;23.808;2023-02-13T15:11:40;96144.53;;;4.76;54.02
62978;BME280;49073;42.352;23.808;2023-02-13T15:14:42;96139.31;;;4.66;54.07
62978;BME280;49073;42.352;23.808;2023-02-13T15:17:42;96137.03;;;4.59;54.95
62978;BME280;49073;42.352;23.808;2023-02-13T15:20:43;96138.44;;;4.46;55.07
62978;BME280;49073;42.352;23.808;2023-02-13T15:23:49;96141.69;;;4.38;55.77
62978;BME280;49073;42.352;23.808;2023-02-13T15:27:01;96145.09;;;4.39;55.49
62978;BME280;49073;42.352;23.808;2023-02-13T15:30:21;96143.09;;;4.25;55.83
62978;BME280;49073;42.352;23.808;2023-02-13T15:33:28;96137.81;;;4.25;55.71
62978;BME280;49073;42.352;23.808;2023-02-13T15:36:39;96145.56;;;4.16;55.90
62978;BME280;49073;42.352;23.808;2023-02-13T15:39:41;96145.84;;;4.10;55.68
62978;BME280;49073;42.352;23.808;2023-02-13T15:42:41;96142.25;;;3.95;54.93
62978;BME280;49073;42.352;23.808;2023-02-13T15:45:42;96149.34;;;4.00;54.95
62978;BME280;49073;42.352;23.808;2023-02-13T15:48:44;96147.81;;;3.88;54.42
62978;BME280;49073;42.352;23.808;2023-02-13T15:51:46;96149.47;;;3.79;54.17
62978;BME280;49073;42.352;23.808;2023-02-13T15:54:49;96151.03;;;3.80;54.06
62978;BME280;49073;42.352;23.808;2023-02-13T15:57:52;96150.03;;;3.71;54.02
62978;BME280;49073;42.352;23.808;2023-02-13T16:00:53;96153.97;;;3.73;53.45
62978;BME280;49073;42.352;23.808;2023-02-13T16:04:05;96158.22;;;3.69;53.54
62978;BME280;49073;42.352;23.808;2023-02-13T16:07:10;96154.59;;;3.55;54.03
62978;BME280;49073;42.352;23.808;2023-02-13T16:10:22;96156.50;;;3.39;54.81
62978;BME280;49073;42.352;23.808;2023-02-13T16:13:25;96162.59;;;3.34;54.84
62978;BME280;49073;42.352;23.808;2023-02-13T16:16:31;96169.22;;;3.21;54.94
62978;BME280;49073;42.352;23.808;2023-02-13T16:19:52;96170.34;;;2.99;55.67
62978;BME280;49073;42.352;23.808;2023-02-13T16:23:00;96175.38;;;2.70;56.17
62978;BME280;49073;42.352;23.808;2023-02-13T16:26:06;96170.91;;;2.50;57.08
62978;BME280;49073;42.352;23.808;2023-02-13T16:29:18;96166.69;;;2.43;57.53
62978;BME280;49073;42.352;23.808;2023-02-13T16:32:26;96177.19;;;2.12;58.37
62978;BME280;49073;42.352;23.808;2023-02-13T16:35:30;96177.94;;;1.92;58.95
62978;BME280;49073;42.352;23.808;2023-02-13T16:42:01;96175.75;;;1.58;60.00
62978;BME280;49073;42.352;23.808;2023-02-13T16:45:22;96169.91;;;1.45;60.72
62978;BME280;49073;42.352;23.808;2023-02-13T16:48:23;96173.56;;;1.39;61.61
62978;BME280;49073;42.352;23.808;2023-02-13T16:54:56;96177.13;;;1.12;62.66
62978;BME280;49073;42.352;23.808;2023-02-13T16:58:04;96178.94;;;1.07;63.27
62978;BME280;49073;42.352;23.808;2023-02-13T17:01:05;96176.94;;;0.81;64.33
62978;BME280;49073;42.352;23.808;2023-02-13T17:04:23;96173.00;;;0.79;64.42
62978;BME280;49073;42.352;23.808;2023-02-13T17:07:42;96172.47;;;0.77;64.85
62978;BME280;49073;42.352;23.808;2023-02-13T17:10:42;96160.34;;;0.70;65.09
62978;BME280;49073;42.352;23.808;2023-02-13T17:13:59;96165.78;;;0.58;66.45
62978;BME280;49073;42.352;23.808;2023-02-13T17:17:00;96162.78;;;0.45;66.45
62978;BME280;49073;42.352;23.808;2023-02-13T17:20:00;96156.03;;;0.54;67.07
62978;BME280;49073;42.352;23.808;2023-02-13T17:23:05;96163.13;;;0.53;67.27
62978;BME280;49073;42.352;23.808;2023-02-13T17:26:06;96155.00;;;0.55;67.27
62978;BME280;49073;42.352;23.808;2023-02-13T17:29:06;96154.38;;;0.42;67.13
62978;BME280;49073;42.352;23.808;2023-02-13T17:32:13;96150.94;;;0.37;67.33
62978;BME280;49073;42.352;23.808;2023-02-13T17:35:15;96155.09;;;0.33;67.07
62978;BME280;49073;42.352;23.808;2023-02-13T17:38:16;96153.72;;;0.25;67.26
62978;BME280;49073;42.352;23.808;2023-02-13T17:41:17;96157.31;;;0.13;67.47
62978;BME280;49073;42.352;23.808;2023-02-13T17:44:18;96153.16;;;0.18;67.86
62978;BME280;49073;42.352;23.808;2023-02-13T17:47:21;96139.72;;;0.14;68.29
62978;BME280;49073;42.352;23.808;2023-02-13T17:50:23;96153.84;;;0.08;68.80
62978;BME280;49073;42.352;23.808;2023-02-13T17:53:27;96144.69;;;0.10;69.66
62978;BME280;49073;42.352;23.808;2023-02-13T17:56:31;96151.25;;;0.13;69.61
62978;BME280;49073;42.352;23.808;2023-02-13T17:59:32;96145.94;;;0.03;70.21
62978;BME280;49073;42.352;23.808;2023-02-13T18:02:32;96145.19;;;0.07;69.94
62978;BME280;49073;42.352;23.808;2023-02-13T18:05:33;96154.34;;;0.05;70.57
62978;BME280;49073;42.352;23.808;2023-02-13T18:08:34;96154.63;;;0.08;71.11
62978;BME280;49073;42.352;23.808;2023-02-13T18:11:34;96135.88;;;0.22;72.66
62978;BME280;49073;42.352;23.808;2023-02-13T18:14:35;96152.56;;;0.43;73.08
62978;BME280;49073;42.352;23.808;2023-02-13T18:17:36;96145.00;;;0.52;72.15